SAS437 LPPT-ENBR
Flight info
| Callsign | SAS437 |
|---|---|
| Flight time | N/A |
| Altitude | 34000 |
| Route | LPPT/02 N0447F340 IXID1N IXIDA DCT PINEK/N0450F360 DCT KORUL DCT KOLEK DCT EBOMO DCT RUSIB DCT NOZHU/N0448F350 DCT BHD/N0450F370 DCT WIGGU DCT AZCAL DCT AVTIC DCT ANJAK/N0449F360 N38 NOKIN UP16 RIBEL/N0451F370 DCT RIGVU DCT MODNI MODN2N ENBR/17 |
| Aircraft | A320/M-SDE3FGHIRWY/LB1 |
Departure
| Time | 2026-05-06 11:59 |
|---|---|
| Airport | Lisbon Humberto Delgado Airport (LPPT) |
Arrival
| Time | N/A |
|---|---|
| Airport | Bergen Airport, Flesland (ENBR) |
| Time | Latitude | Longitude | Altitude | Speed | Heading |
|---|---|---|---|---|---|
| 2026-05-06 11:34 | 38.77116 | -9.13111 | 333 ft | 0 kts | 78° |
| 2026-05-06 11:47 | 38.77115 | -9.13116 | 337 ft | 2 kts | 78° |
| 2026-05-06 11:47 | 38.77110 | -9.13140 | 332 ft | 3 kts | 72° |
| 2026-05-06 11:48 | 38.77103 | -9.13164 | 335 ft | 3 kts | 61° |
| 2026-05-06 11:48 | 38.77093 | -9.13184 | 335 ft | 3 kts | 35° |
| 2026-05-06 11:48 | 38.77079 | -9.13192 | 334 ft | 2 kts | 351° |
| 2026-05-06 11:48 | 38.77076 | -9.13192 | 334 ft | 0 kts | 348° |
| 2026-05-06 11:53 | 38.77077 | -9.13192 | 334 ft | 1 kts | 348° |
| 2026-05-06 11:53 | 38.77091 | -9.13196 | 337 ft | 3 kts | 348° |
| 2026-05-06 11:54 | 38.77125 | -9.13205 | 338 ft | 8 kts | 348° |
| 2026-05-06 11:54 | 38.77194 | -9.13223 | 338 ft | 14 kts | 348° |
| 2026-05-06 11:54 | 38.77315 | -9.13269 | 336 ft | 19 kts | 319° |
| 2026-05-06 11:54 | 38.77310 | -9.13405 | 344 ft | 15 kts | 258° |
| 2026-05-06 11:55 | 38.77291 | -9.13530 | 355 ft | 16 kts | 258° |
| 2026-05-06 11:55 | 38.77255 | -9.13746 | 354 ft | 20 kts | 259° |
| 2026-05-06 11:55 | 38.77182 | -9.13873 | 353 ft | 19 kts | 201° |
| 2026-05-06 11:55 | 38.77051 | -9.13943 | 356 ft | 22 kts | 203° |
| 2026-05-06 11:56 | 38.76898 | -9.14024 | 349 ft | 26 kts | 202° |
| 2026-05-06 11:56 | 38.76721 | -9.14119 | 351 ft | 29 kts | 202° |
| 2026-05-06 11:56 | 38.76593 | -9.14209 | 340 ft | 5 kts | 250° |
| 2026-05-06 11:56 | 38.76593 | -9.14210 | 340 ft | 0 kts | 251° |
| 2026-05-06 11:57 | 38.76592 | -9.14216 | 340 ft | 3 kts | 257° |
| 2026-05-06 11:57 | 38.76600 | -9.14259 | 337 ft | 7 kts | 292° |
| 2026-05-06 11:57 | 38.76632 | -9.14339 | 335 ft | 13 kts | 312° |
| 2026-05-06 11:57 | 38.76709 | -9.14354 | 335 ft | 12 kts | 22° |
| 2026-05-06 11:58 | 38.76800 | -9.14305 | 340 ft | 43 kts | 22° |
| 2026-05-06 11:58 | 38.77262 | -9.14058 | 361 ft | 98 kts | 23° |
| 2026-05-06 11:58 | 38.78019 | -9.13656 | 367 ft | 139 kts | 22° |
| 2026-05-06 11:58 | 38.79021 | -9.13129 | 388 ft | 172 kts | 20° |
| 2026-05-06 11:59 | 38.80114 | -9.12526 | 937 ft | 176 kts | 19° |
| 2026-05-06 11:59 | 38.81236 | -9.11876 | 1626 ft | 177 kts | 21° |
| 2026-05-06 11:59 | 38.82306 | -9.11105 | 2335 ft | 175 kts | 27° |
| 2026-05-06 11:59 | 38.83348 | -9.10229 | 2824 ft | 189 kts | 27° |
| 2026-05-06 12:00 | 38.84563 | -9.09312 | 3314 ft | 216 kts | 29° |
| 2026-05-06 12:00 | 38.85884 | -9.08354 | 3907 ft | 228 kts | 28° |
| 2026-05-06 12:00 | 38.87326 | -9.07270 | 4243 ft | 250 kts | 29° |
| 2026-05-06 12:00 | 38.88844 | -9.06102 | 4938 ft | 257 kts | 29° |
| 2026-05-06 12:01 | 38.90287 | -9.04711 | 5730 ft | 262 kts | 42° |
| 2026-05-06 12:01 | 38.91648 | -9.03117 | 6505 ft | 267 kts | 41° |
| 2026-05-06 12:01 | 38.93036 | -9.01498 | 7217 ft | 272 kts | 41° |
| 2026-05-06 12:01 | 38.94425 | -8.99880 | 7917 ft | 276 kts | 41° |
| 2026-05-06 12:02 | 38.95880 | -8.98185 | 8618 ft | 282 kts | 41° |
| 2026-05-06 12:02 | 38.97348 | -8.96474 | 9312 ft | 287 kts | 41° |
| 2026-05-06 12:02 | 38.98817 | -8.94760 | 9978 ft | 292 kts | 41° |
| 2026-05-06 12:02 | 39.00356 | -8.92961 | 10352 ft | 308 kts | 42° |
| 2026-05-06 12:03 | 39.02003 | -8.91037 | 10497 ft | 331 kts | 41° |
| 2026-05-06 12:03 | 39.03756 | -8.88988 | 10633 ft | 351 kts | 41° |
| 2026-05-06 12:03 | 39.05595 | -8.86834 | 11047 ft | 361 kts | 42° |
| 2026-05-06 12:03 | 39.07458 | -8.84651 | 11628 ft | 365 kts | 41° |
| 2026-05-06 12:04 | 39.09344 | -8.82442 | 12201 ft | 369 kts | 41° |
| 2026-05-06 12:04 | 39.11164 | -8.80309 | 12752 ft | 373 kts | 41° |
| 2026-05-06 12:04 | 39.12977 | -8.78181 | 13309 ft | 376 kts | 41° |
| 2026-05-06 12:04 | 39.14903 | -8.75922 | 13874 ft | 380 kts | 40° |
| 2026-05-06 12:05 | 39.16826 | -8.73620 | 14403 ft | 384 kts | 45° |
| 2026-05-06 12:05 | 39.18621 | -8.71046 | 14898 ft | 389 kts | 47° |
| 2026-05-06 12:05 | 39.20414 | -8.68419 | 15464 ft | 391 kts | 47° |
| 2026-05-06 12:05 | 39.22216 | -8.65769 | 15994 ft | 394 kts | 47° |
| 2026-05-06 12:06 | 39.24030 | -8.63096 | 16513 ft | 398 kts | 47° |
| 2026-05-06 12:06 | 39.25859 | -8.60403 | 17034 ft | 401 kts | 47° |
| 2026-05-06 12:06 | 39.27711 | -8.57680 | 17582 ft | 404 kts | 47° |
| 2026-05-06 12:06 | 39.29570 | -8.54951 | 18119 ft | 408 kts | 47° |
| 2026-05-06 12:07 | 39.31455 | -8.52183 | 18618 ft | 412 kts | 47° |
| 2026-05-06 12:07 | 39.33355 | -8.49388 | 19111 ft | 415 kts | 47° |
| 2026-05-06 12:07 | 39.35263 | -8.46578 | 19614 ft | 418 kts | 47° |
| 2026-05-06 12:07 | 39.37193 | -8.43737 | 20112 ft | 421 kts | 47° |
| 2026-05-06 12:08 | 39.39134 | -8.40882 | 20587 ft | 424 kts | 47° |
| 2026-05-06 12:08 | 39.41088 | -8.38001 | 21041 ft | 427 kts | 47° |
| 2026-05-06 12:08 | 39.43043 | -8.35106 | 21475 ft | 430 kts | 47° |
| 2026-05-06 12:08 | 39.45016 | -8.32178 | 21888 ft | 433 kts | 47° |
| 2026-05-06 12:09 | 39.46976 | -8.29271 | 22288 ft | 435 kts | 47° |
| 2026-05-06 12:09 | 39.49002 | -8.26266 | 22696 ft | 438 kts | 47° |
| 2026-05-06 12:09 | 39.51008 | -8.23291 | 23098 ft | 441 kts | 47° |
| 2026-05-06 12:09 | 39.53005 | -8.20326 | 23469 ft | 444 kts | 47° |
| 2026-05-06 12:10 | 39.55041 | -8.17302 | 23796 ft | 447 kts | 47° |
| 2026-05-06 12:10 | 39.57082 | -8.14265 | 24105 ft | 449 kts | 47° |
| 2026-05-06 12:10 | 39.59138 | -8.11203 | 24432 ft | 451 kts | 47° |
| 2026-05-06 12:10 | 39.61378 | -8.08360 | 24745 ft | 451 kts | 37° |
| 2026-05-06 12:11 | 39.63979 | -8.06125 | 25049 ft | 450 kts | 25° |
| 2026-05-06 12:11 | 39.66870 | -8.04575 | 25350 ft | 448 kts | 14° |
| 2026-05-06 12:11 | 39.69920 | -8.03767 | 25659 ft | 447 kts | 3° |
| 2026-05-06 12:11 | 39.73022 | -8.03722 | 25962 ft | 445 kts | 352° |
| 2026-05-06 12:12 | 39.76076 | -8.04372 | 26279 ft | 445 kts | 346° |
| 2026-05-06 12:12 | 39.79112 | -8.05157 | 26615 ft | 446 kts | 346° |
| 2026-05-06 12:12 | 39.82156 | -8.05940 | 27058 ft | 445 kts | 346° |
| 2026-05-06 12:12 | 39.85181 | -8.06717 | 27501 ft | 444 kts | 346° |
| 2026-05-06 12:13 | 39.88211 | -8.07497 | 27942 ft | 443 kts | 346° |
| 2026-05-06 12:13 | 39.91235 | -8.08277 | 28371 ft | 442 kts | 346° |
| 2026-05-06 12:13 | 39.94242 | -8.09049 | 28818 ft | 441 kts | 346° |
| 2026-05-06 12:13 | 39.97255 | -8.09826 | 29271 ft | 441 kts | 346° |
| 2026-05-06 12:14 | 40.00261 | -8.10603 | 29707 ft | 439 kts | 346° |
| 2026-05-06 12:14 | 40.03252 | -8.11379 | 30138 ft | 438 kts | 346° |
| 2026-05-06 12:14 | 40.06244 | -8.12158 | 30519 ft | 438 kts | 346° |
| 2026-05-06 12:14 | 40.09227 | -8.12933 | 30877 ft | 437 kts | 346° |
| 2026-05-06 12:15 | 40.12212 | -8.13706 | 31249 ft | 437 kts | 346° |
| 2026-05-06 12:15 | 40.15184 | -8.14472 | 31619 ft | 436 kts | 346° |
| 2026-05-06 12:15 | 40.18161 | -8.15242 | 31986 ft | 435 kts | 346° |
| 2026-05-06 12:15 | 40.21125 | -8.16012 | 32381 ft | 435 kts | 346° |
| 2026-05-06 12:16 | 40.24082 | -8.16785 | 32764 ft | 434 kts | 346° |
| 2026-05-06 12:16 | 40.27030 | -8.17556 | 33148 ft | 433 kts | 346° |
| 2026-05-06 12:16 | 40.29949 | -8.18319 | 33511 ft | 433 kts | 345° |
| 2026-05-06 12:16 | 40.32933 | -8.19098 | 33886 ft | 432 kts | 345° |
| 2026-05-06 12:17 | 40.35874 | -8.19865 | 34196 ft | 432 kts | 345° |
| 2026-05-06 12:17 | 40.38779 | -8.20623 | 34467 ft | 431 kts | 345° |
| 2026-05-06 12:17 | 40.41718 | -8.21391 | 34738 ft | 431 kts | 345° |
| 2026-05-06 12:17 | 40.44662 | -8.22160 | 34997 ft | 431 kts | 345° |
| 2026-05-06 12:18 | 40.47615 | -8.22937 | 35247 ft | 431 kts | 345° |
| 2026-05-06 12:18 | 40.50557 | -8.23711 | 35478 ft | 431 kts | 345° |
| 2026-05-06 12:18 | 40.53490 | -8.24484 | 35719 ft | 431 kts | 345° |
| 2026-05-06 12:18 | 40.56432 | -8.25259 | 35942 ft | 431 kts | 345° |
| 2026-05-06 12:19 | 40.61357 | -8.26553 | 36021 ft | 438 kts | 345° |
| 2026-05-06 12:19 | 40.67408 | -8.28144 | 36008 ft | 447 kts | 345° |
| 2026-05-06 12:20 | 40.73520 | -8.29756 | 36008 ft | 449 kts | 345° |
| 2026-05-06 12:20 | 40.79649 | -8.31377 | 36007 ft | 449 kts | 345° |
| 2026-05-06 12:21 | 40.85782 | -8.33001 | 36008 ft | 449 kts | 345° |
| 2026-05-06 12:21 | 40.91869 | -8.34616 | 36017 ft | 449 kts | 345° |
| 2026-05-06 12:22 | 40.98001 | -8.36248 | 36023 ft | 449 kts | 345° |
| 2026-05-06 12:22 | 41.04125 | -8.37888 | 36023 ft | 449 kts | 345° |
| 2026-05-06 12:23 | 41.10213 | -8.39515 | 36035 ft | 450 kts | 345° |
| 2026-05-06 12:23 | 41.16354 | -8.41161 | 36034 ft | 450 kts | 345° |
| 2026-05-06 12:24 | 41.22491 | -8.42808 | 36035 ft | 450 kts | 345° |
| 2026-05-06 12:24 | 41.28640 | -8.44459 | 36050 ft | 450 kts | 346° |
| 2026-05-06 12:25 | 41.34796 | -8.46109 | 36047 ft | 451 kts | 345° |
| 2026-05-06 12:25 | 41.40897 | -8.47754 | 36038 ft | 451 kts | 345° |
| 2026-05-06 12:26 | 41.47039 | -8.49413 | 36049 ft | 451 kts | 345° |
| 2026-05-06 12:26 | 41.53192 | -8.51080 | 36047 ft | 451 kts | 345° |
| 2026-05-06 12:27 | 41.59337 | -8.52745 | 36039 ft | 451 kts | 345° |
| 2026-05-06 12:27 | 41.65493 | -8.54422 | 36040 ft | 451 kts | 345° |
| 2026-05-06 12:28 | 41.71637 | -8.56096 | 36043 ft | 451 kts | 346° |
| 2026-05-06 12:28 | 41.77785 | -8.57769 | 36047 ft | 451 kts | 346° |
| 2026-05-06 12:29 | 41.84028 | -8.58745 | 36049 ft | 455 kts | 0° |
| 2026-05-06 12:29 | 41.90246 | -8.57041 | 36054 ft | 461 kts | 19° |
| 2026-05-06 12:30 | 41.96181 | -8.53854 | 36040 ft | 461 kts | 19° |
| 2026-05-06 12:30 | 42.02111 | -8.50685 | 36040 ft | 461 kts | 19° |
| 2026-05-06 12:31 | 42.08074 | -8.47497 | 36040 ft | 461 kts | 19° |
| 2026-05-06 12:31 | 42.14034 | -8.44284 | 36054 ft | 462 kts | 20° |
| 2026-05-06 12:32 | 42.20001 | -8.41063 | 36050 ft | 461 kts | 20° |
| 2026-05-06 12:32 | 42.25961 | -8.37832 | 36051 ft | 461 kts | 20° |
| 2026-05-06 12:33 | 42.31914 | -8.34604 | 36060 ft | 461 kts | 20° |
| 2026-05-06 12:33 | 42.37870 | -8.31382 | 36056 ft | 460 kts | 20° |
| 2026-05-06 12:34 | 42.43817 | -8.28157 | 36058 ft | 460 kts | 20° |
| 2026-05-06 12:34 | 42.49709 | -8.24951 | 36056 ft | 459 kts | 20° |
| 2026-05-06 12:35 | 42.55633 | -8.21708 | 36053 ft | 459 kts | 20° |
| 2026-05-06 12:35 | 42.61556 | -8.18462 | 36053 ft | 459 kts | 20° |
| 2026-05-06 12:36 | 42.67479 | -8.15216 | 36054 ft | 459 kts | 20° |
| 2026-05-06 12:36 | 42.73412 | -8.11963 | 36061 ft | 459 kts | 20° |
| 2026-05-06 12:37 | 42.79329 | -8.08708 | 36060 ft | 459 kts | 20° |
| 2026-05-06 12:37 | 42.85245 | -8.05440 | 36065 ft | 459 kts | 20° |
| 2026-05-06 12:38 | 42.91164 | -8.02169 | 36063 ft | 459 kts | 20° |
| 2026-05-06 12:38 | 42.97092 | -7.98897 | 36066 ft | 459 kts | 20° |
| 2026-05-06 12:39 | 43.02966 | -7.95643 | 36063 ft | 459 kts | 20° |
| 2026-05-06 12:39 | 43.08876 | -7.92350 | 36066 ft | 459 kts | 20° |
| 2026-05-06 12:40 | 43.14787 | -7.89049 | 36061 ft | 459 kts | 20° |
| 2026-05-06 12:40 | 43.20700 | -7.85736 | 36071 ft | 458 kts | 20° |
| 2026-05-06 12:41 | 43.26608 | -7.82424 | 36071 ft | 458 kts | 20° |
| 2026-05-06 12:41 | 43.32510 | -7.79122 | 36069 ft | 458 kts | 20° |
| 2026-05-06 12:42 | 43.38423 | -7.75813 | 36080 ft | 458 kts | 20° |
| 2026-05-06 12:42 | 43.44332 | -7.72491 | 36079 ft | 458 kts | 20° |
| 2026-05-06 12:43 | 43.50189 | -7.69181 | 36079 ft | 458 kts | 20° |
| 2026-05-06 12:43 | 43.56082 | -7.65840 | 36077 ft | 458 kts | 20° |
| 2026-05-06 12:44 | 43.61974 | -7.62495 | 36088 ft | 458 kts | 20° |
| 2026-05-06 12:44 | 43.67865 | -7.59155 | 36083 ft | 457 kts | 20° |
| 2026-05-06 12:45 | 43.73737 | -7.55811 | 36081 ft | 456 kts | 20° |
| 2026-05-06 12:46 | 43.82532 | -7.50789 | 36089 ft | 455 kts | 20° |
| 2026-05-06 12:46 | 43.88383 | -7.47447 | 36083 ft | 455 kts | 20° |
| 2026-05-06 12:47 | 43.94238 | -7.44092 | 36076 ft | 455 kts | 20° |
| 2026-05-06 12:47 | 44.00048 | -7.40752 | 36085 ft | 454 kts | 20° |
| 2026-05-06 12:48 | 44.05884 | -7.37398 | 36077 ft | 454 kts | 20° |
| 2026-05-06 12:48 | 44.11722 | -7.34025 | 36074 ft | 454 kts | 20° |
| 2026-05-06 12:49 | 44.17559 | -7.30641 | 36073 ft | 454 kts | 20° |
| 2026-05-06 12:49 | 44.23384 | -7.27273 | 36081 ft | 453 kts | 21° |
| 2026-05-06 12:50 | 44.29213 | -7.23891 | 36077 ft | 453 kts | 21° |
| 2026-05-06 12:50 | 44.35035 | -7.20495 | 36076 ft | 453 kts | 21° |
| 2026-05-06 12:51 | 44.40820 | -7.17118 | 36079 ft | 453 kts | 21° |
| 2026-05-06 12:51 | 44.46640 | -7.13717 | 36071 ft | 453 kts | 21° |
| 2026-05-06 12:52 | 44.52451 | -7.10318 | 36069 ft | 453 kts | 21° |
| 2026-05-06 12:52 | 44.58271 | -7.06894 | 36069 ft | 453 kts | 21° |
| 2026-05-06 12:53 | 44.64081 | -7.03471 | 36069 ft | 453 kts | 21° |
| 2026-05-06 12:53 | 44.69896 | -7.00041 | 36067 ft | 453 kts | 21° |
| 2026-05-06 12:54 | 44.75700 | -6.96614 | 36069 ft | 453 kts | 21° |
| 2026-05-06 12:54 | 44.81473 | -6.93197 | 36073 ft | 452 kts | 21° |
| 2026-05-06 12:55 | 44.87061 | -6.89077 | 36060 ft | 454 kts | 29° |
| 2026-05-06 12:55 | 44.92520 | -6.84578 | 36062 ft | 454 kts | 28° |
| 2026-05-06 12:56 | 44.97983 | -6.80084 | 36062 ft | 454 kts | 28° |
| 2026-05-06 12:56 | 45.03449 | -6.75589 | 36067 ft | 454 kts | 29° |
| 2026-05-06 12:57 | 45.08907 | -6.71089 | 36065 ft | 454 kts | 29° |
| 2026-05-06 12:57 | 45.14361 | -6.66562 | 36062 ft | 455 kts | 29° |
| 2026-05-06 12:58 | 45.19797 | -6.62041 | 36075 ft | 455 kts | 29° |
| 2026-05-06 12:58 | 45.25249 | -6.57504 | 36067 ft | 454 kts | 29° |
| 2026-05-06 12:59 | 45.30715 | -6.52953 | 36068 ft | 454 kts | 29° |
| 2026-05-06 12:59 | 45.36130 | -6.48423 | 36067 ft | 454 kts | 29° |
| 2026-05-06 13:00 | 45.41572 | -6.43861 | 36070 ft | 454 kts | 29° |
| 2026-05-06 13:00 | 45.47021 | -6.39288 | 36070 ft | 454 kts | 29° |
| 2026-05-06 13:01 | 45.52462 | -6.34688 | 36069 ft | 454 kts | 29° |
| 2026-05-06 13:01 | 45.57904 | -6.30093 | 36069 ft | 454 kts | 29° |
| 2026-05-06 13:02 | 45.63341 | -6.25502 | 36076 ft | 454 kts | 29° |
| 2026-05-06 13:02 | 45.68771 | -6.20909 | 36074 ft | 453 kts | 29° |
| 2026-05-06 13:03 | 45.74190 | -6.16295 | 36071 ft | 453 kts | 29° |
| 2026-05-06 13:03 | 45.79590 | -6.11692 | 36066 ft | 453 kts | 29° |
| 2026-05-06 13:04 | 45.85008 | -6.07072 | 36069 ft | 453 kts | 29° |
| 2026-05-06 13:04 | 45.90428 | -6.02437 | 36067 ft | 453 kts | 29° |
| 2026-05-06 13:05 | 45.95833 | -5.97797 | 36063 ft | 453 kts | 29° |
| 2026-05-06 13:05 | 46.01237 | -5.93150 | 36066 ft | 452 kts | 29° |
| 2026-05-06 13:06 | 46.06642 | -5.88492 | 36069 ft | 452 kts | 29° |
| 2026-05-06 13:06 | 46.11996 | -5.83864 | 36065 ft | 452 kts | 29° |
| 2026-05-06 13:07 | 46.17394 | -5.79198 | 36060 ft | 451 kts | 29° |
| 2026-05-06 13:07 | 46.22778 | -5.74530 | 36061 ft | 451 kts | 30° |
| 2026-05-06 13:08 | 46.28162 | -5.69855 | 36048 ft | 451 kts | 30° |
| 2026-05-06 13:08 | 46.32628 | -5.65962 | 36054 ft | 451 kts | 30° |
| 2026-05-06 13:09 | 46.38006 | -5.61252 | 36050 ft | 451 kts | 30° |
| 2026-05-06 13:09 | 46.43374 | -5.56550 | 36046 ft | 451 kts | 30° |
| 2026-05-06 13:10 | 46.48744 | -5.51852 | 36053 ft | 451 kts | 29° |
| 2026-05-06 13:10 | 46.54121 | -5.47136 | 36040 ft | 451 kts | 30° |
| 2026-05-06 13:11 | 46.59485 | -5.42401 | 36048 ft | 451 kts | 29° |
| 2026-05-06 13:11 | 46.64844 | -5.37664 | 36039 ft | 451 kts | 30° |
| 2026-05-06 13:12 | 46.70171 | -5.32940 | 36043 ft | 451 kts | 30° |
| 2026-05-06 13:12 | 46.75535 | -5.28183 | 36046 ft | 451 kts | 30° |
| 2026-05-06 13:13 | 46.80895 | -5.23416 | 36044 ft | 450 kts | 29° |
| 2026-05-06 13:13 | 46.86243 | -5.18654 | 36050 ft | 450 kts | 30° |
| 2026-05-06 13:14 | 46.91594 | -5.13875 | 36041 ft | 450 kts | 30° |
| 2026-05-06 13:14 | 46.96949 | -5.09082 | 36041 ft | 450 kts | 30° |
| 2026-05-06 13:15 | 47.02292 | -5.04291 | 36036 ft | 450 kts | 30° |
| 2026-05-06 13:15 | 47.07605 | -4.99516 | 36034 ft | 450 kts | 30° |
| 2026-05-06 13:16 | 47.12955 | -4.94697 | 36040 ft | 450 kts | 30° |
| 2026-05-06 13:16 | 47.18293 | -4.89870 | 36033 ft | 450 kts | 30° |
| 2026-05-06 13:17 | 47.23623 | -4.85026 | 36031 ft | 450 kts | 29° |
| 2026-05-06 13:17 | 47.28943 | -4.80184 | 36024 ft | 450 kts | 30° |
| 2026-05-06 13:18 | 47.34274 | -4.75346 | 36018 ft | 450 kts | 30° |
| 2026-05-06 13:18 | 47.39567 | -4.70521 | 36018 ft | 450 kts | 30° |
| 2026-05-06 13:19 | 47.44926 | -4.65623 | 36011 ft | 450 kts | 31° |
| 2026-05-06 13:19 | 47.50205 | -4.60786 | 36005 ft | 450 kts | 30° |
| 2026-05-06 13:20 | 47.55527 | -4.55891 | 36003 ft | 450 kts | 30° |
| 2026-05-06 13:20 | 47.60836 | -4.50989 | 35991 ft | 450 kts | 31° |
| 2026-05-06 13:21 | 47.66147 | -4.46076 | 35993 ft | 450 kts | 30° |
| 2026-05-06 13:21 | 47.71450 | -4.41159 | 35990 ft | 450 kts | 30° |
| 2026-05-06 13:22 | 47.76761 | -4.36243 | 35987 ft | 450 kts | 30° |
| 2026-05-06 13:22 | 47.82156 | -4.31560 | 35999 ft | 448 kts | 21° |
| 2026-05-06 13:23 | 47.88053 | -4.28720 | 36002 ft | 446 kts | 14° |
| 2026-05-06 13:23 | 47.94021 | -4.26179 | 36014 ft | 446 kts | 14° |
| 2026-05-06 13:24 | 47.99990 | -4.23623 | 36008 ft | 446 kts | 14° |
| 2026-05-06 13:24 | 48.05942 | -4.21058 | 36007 ft | 446 kts | 14° |
| 2026-05-06 13:25 | 48.11919 | -4.18494 | 35999 ft | 446 kts | 14° |
| 2026-05-06 13:25 | 48.17892 | -4.15929 | 36003 ft | 447 kts | 14° |
| 2026-05-06 13:26 | 48.23869 | -4.13327 | 36001 ft | 447 kts | 15° |
| 2026-05-06 13:26 | 48.29844 | -4.10724 | 35998 ft | 447 kts | 15° |
| 2026-05-06 13:27 | 48.35817 | -4.08129 | 36006 ft | 447 kts | 14° |
| 2026-05-06 13:27 | 48.41798 | -4.05535 | 36009 ft | 447 kts | 14° |
| 2026-05-06 13:28 | 48.47780 | -4.02930 | 36007 ft | 447 kts | 15° |
| 2026-05-06 13:28 | 48.53751 | -4.00311 | 36011 ft | 447 kts | 15° |
| 2026-05-06 13:29 | 48.59694 | -3.97697 | 36017 ft | 447 kts | 15° |
| 2026-05-06 13:29 | 48.65665 | -3.95070 | 36015 ft | 447 kts | 15° |
| 2026-05-06 13:30 | 48.71654 | -3.92429 | 36015 ft | 448 kts | 15° |
| 2026-05-06 13:30 | 48.77628 | -3.89790 | 36016 ft | 448 kts | 15° |
| 2026-05-06 13:31 | 48.83605 | -3.87135 | 36017 ft | 448 kts | 15° |
| 2026-05-06 13:31 | 48.89589 | -3.84483 | 36016 ft | 448 kts | 15° |
| 2026-05-06 13:32 | 48.95569 | -3.81819 | 36015 ft | 447 kts | 14° |
| 2026-05-06 13:32 | 49.01706 | -3.80610 | 36015 ft | 444 kts | 1° |
| 2026-05-06 13:33 | 49.07889 | -3.80251 | 36019 ft | 445 kts | 1° |
| 2026-05-06 13:33 | 49.14076 | -3.79877 | 36013 ft | 445 kts | 1° |
| 2026-05-06 13:34 | 49.20224 | -3.79504 | 36007 ft | 445 kts | 1° |
| 2026-05-06 13:34 | 49.26412 | -3.79125 | 36014 ft | 445 kts | 1° |
| 2026-05-06 13:35 | 49.32601 | -3.78739 | 36017 ft | 445 kts | 1° |
| 2026-05-06 13:35 | 49.38791 | -3.78360 | 36014 ft | 445 kts | 1° |
| 2026-05-06 13:36 | 49.44992 | -3.77979 | 36015 ft | 446 kts | 1° |
| 2026-05-06 13:36 | 49.51192 | -3.77592 | 36022 ft | 446 kts | 0° |
| 2026-05-06 13:37 | 49.57398 | -3.77215 | 36016 ft | 446 kts | 0° |
| 2026-05-06 13:37 | 49.63594 | -3.76830 | 36013 ft | 446 kts | 0° |
| 2026-05-06 13:38 | 49.69796 | -3.76229 | 36020 ft | 447 kts | 8° |
| 2026-05-06 13:38 | 49.75858 | -3.74025 | 36019 ft | 448 kts | 12° |
| 2026-05-06 13:39 | 49.81916 | -3.71722 | 36018 ft | 448 kts | 12° |
| 2026-05-06 13:39 | 49.87945 | -3.69435 | 36021 ft | 448 kts | 12° |
| 2026-05-06 13:40 | 49.94010 | -3.67124 | 36011 ft | 449 kts | 12° |
| 2026-05-06 13:40 | 50.00078 | -3.64796 | 36010 ft | 449 kts | 12° |
| 2026-05-06 13:41 | 50.06145 | -3.62453 | 36030 ft | 450 kts | 12° |
| 2026-05-06 13:41 | 50.12218 | -3.60107 | 36022 ft | 450 kts | 12° |
| 2026-05-06 13:42 | 50.18308 | -3.57755 | 36026 ft | 450 kts | 12° |
| 2026-05-06 13:42 | 50.24390 | -3.55390 | 36027 ft | 451 kts | 12° |
| 2026-05-06 13:43 | 50.30483 | -3.53029 | 36031 ft | 451 kts | 12° |
| 2026-05-06 13:43 | 50.36539 | -3.50669 | 36219 ft | 450 kts | 12° |
| 2026-05-06 13:43 | 50.39579 | -3.49514 | 36474 ft | 449 kts | 9° |
| 2026-05-06 13:44 | 50.42664 | -3.48825 | 36735 ft | 447 kts | 5° |
| 2026-05-06 13:44 | 50.45746 | -3.48243 | 36942 ft | 448 kts | 5° |
| 2026-05-06 13:44 | 50.48847 | -3.47659 | 37008 ft | 449 kts | 5° |
| 2026-05-06 13:45 | 50.55071 | -3.46486 | 37008 ft | 449 kts | 5° |
| 2026-05-06 13:45 | 50.64385 | -3.44723 | 37029 ft | 449 kts | 5° |
| 2026-05-06 13:46 | 50.70604 | -3.43538 | 37029 ft | 449 kts | 5° |
| 2026-05-06 13:46 | 50.76805 | -3.42343 | 37035 ft | 450 kts | 5° |
| 2026-05-06 13:47 | 50.82980 | -3.41157 | 37046 ft | 450 kts | 5° |
| 2026-05-06 13:47 | 50.89204 | -3.39957 | 37038 ft | 450 kts | 5° |
| 2026-05-06 13:48 | 50.95439 | -3.38752 | 37034 ft | 450 kts | 5° |
| 2026-05-06 13:48 | 51.01660 | -3.37552 | 37034 ft | 451 kts | 5° |
| 2026-05-06 13:49 | 51.07881 | -3.36347 | 37027 ft | 451 kts | 5° |
| 2026-05-06 13:49 | 51.14112 | -3.35130 | 37027 ft | 451 kts | 5° |
| 2026-05-06 13:50 | 51.20335 | -3.33918 | 37033 ft | 451 kts | 5° |
| 2026-05-06 13:50 | 51.26571 | -3.32674 | 37034 ft | 451 kts | 5° |
| 2026-05-06 13:51 | 51.32808 | -3.31399 | 37035 ft | 451 kts | 5° |
| 2026-05-06 13:51 | 51.39042 | -3.30122 | 37051 ft | 451 kts | 5° |
| 2026-05-06 13:52 | 51.45234 | -3.28862 | 37053 ft | 451 kts | 5° |
| 2026-05-06 13:52 | 51.51469 | -3.27595 | 37047 ft | 451 kts | 5° |
| 2026-05-06 13:53 | 51.57711 | -3.26323 | 37048 ft | 451 kts | 5° |
| 2026-05-06 13:53 | 51.63938 | -3.25043 | 37055 ft | 451 kts | 5° |
| 2026-05-06 13:54 | 51.69155 | -3.23965 | 37058 ft | 451 kts | 5° |
| 2026-05-06 13:54 | 51.75349 | -3.22694 | 37058 ft | 451 kts | 5° |
| 2026-05-06 13:55 | 51.81584 | -3.21419 | 37064 ft | 451 kts | 5° |
| 2026-05-06 13:55 | 51.87808 | -3.20137 | 37055 ft | 451 kts | 5° |
| 2026-05-06 13:56 | 51.94048 | -3.19051 | 37045 ft | 450 kts | 1° |
| 2026-05-06 13:56 | 52.00293 | -3.18604 | 37047 ft | 449 kts | 359° |
| 2026-05-06 13:57 | 52.06548 | -3.18325 | 37036 ft | 449 kts | 359° |
| 2026-05-06 13:57 | 52.12789 | -3.17917 | 37034 ft | 449 kts | 0° |
| 2026-05-06 13:58 | 52.19026 | -3.17409 | 37035 ft | 449 kts | 0° |
| 2026-05-06 13:58 | 52.24720 | -3.16937 | 37049 ft | 449 kts | 0° |
| 2026-05-06 13:59 | 52.30964 | -3.16454 | 37037 ft | 449 kts | 0° |
| 2026-05-06 13:59 | 52.37180 | -3.15979 | 37036 ft | 450 kts | 0° |
| 2026-05-06 14:00 | 52.43431 | -3.15500 | 37035 ft | 450 kts | 0° |
| 2026-05-06 14:00 | 52.49690 | -3.15014 | 37048 ft | 450 kts | 0° |
| 2026-05-06 14:01 | 52.55952 | -3.14517 | 37031 ft | 450 kts | 0° |
| 2026-05-06 14:01 | 52.62247 | -3.14022 | 37039 ft | 450 kts | 0° |
| 2026-05-06 14:02 | 52.68513 | -3.13520 | 37031 ft | 451 kts | 2° |
| 2026-05-06 14:02 | 52.74613 | -3.11064 | 37038 ft | 457 kts | 21° |
| 2026-05-06 14:03 | 52.80372 | -3.06565 | 37034 ft | 457 kts | 23° |
| 2026-05-06 14:03 | 52.86099 | -3.02099 | 37038 ft | 458 kts | 22° |
| 2026-05-06 14:04 | 52.91904 | -2.97938 | 37030 ft | 456 kts | 17° |
| 2026-05-06 14:04 | 52.97867 | -2.94311 | 37055 ft | 457 kts | 18° |
| 2026-05-06 14:05 | 53.03840 | -2.90646 | 37056 ft | 457 kts | 18° |
| 2026-05-06 14:05 | 53.09804 | -2.86969 | 37049 ft | 457 kts | 18° |
| 2026-05-06 14:06 | 53.15777 | -2.83272 | 37056 ft | 458 kts | 18° |
| 2026-05-06 14:06 | 53.21753 | -2.79570 | 37050 ft | 458 kts | 18° |
| 2026-05-06 14:07 | 53.27721 | -2.75874 | 37071 ft | 458 kts | 18° |
| 2026-05-06 14:07 | 53.33694 | -2.72142 | 37068 ft | 458 kts | 18° |
| 2026-05-06 14:08 | 53.39655 | -2.68407 | 37069 ft | 457 kts | 18° |
| 2026-05-06 14:08 | 53.45601 | -2.64671 | 37065 ft | 457 kts | 18° |
| 2026-05-06 14:09 | 53.51562 | -2.60919 | 37063 ft | 457 kts | 18° |
| 2026-05-06 14:09 | 53.57520 | -2.57157 | 37061 ft | 458 kts | 18° |
| 2026-05-06 14:10 | 53.63488 | -2.53381 | 37062 ft | 459 kts | 18° |
| 2026-05-06 14:10 | 53.69465 | -2.49592 | 37063 ft | 459 kts | 18° |
| 2026-05-06 14:11 | 53.75448 | -2.45783 | 37070 ft | 459 kts | 18° |
| 2026-05-06 14:11 | 53.81384 | -2.41987 | 37067 ft | 459 kts | 18° |
| 2026-05-06 14:12 | 53.87398 | -2.38126 | 37066 ft | 459 kts | 18° |
| 2026-05-06 14:12 | 53.93330 | -2.34316 | 37064 ft | 459 kts | 18° |
| 2026-05-06 14:13 | 53.99312 | -2.30462 | 37078 ft | 459 kts | 18° |
| 2026-05-06 14:13 | 54.05230 | -2.26307 | 37070 ft | 461 kts | 22° |
| 2026-05-06 14:14 | 54.11011 | -2.21578 | 37066 ft | 461 kts | 24° |
| 2026-05-06 14:14 | 54.16757 | -2.16695 | 37068 ft | 461 kts | 23° |
| 2026-05-06 14:15 | 54.22537 | -2.11904 | 37066 ft | 461 kts | 23° |
| 2026-05-06 14:15 | 54.28336 | -2.07187 | 37079 ft | 462 kts | 22° |
| 2026-05-06 14:16 | 54.34136 | -2.02461 | 37070 ft | 462 kts | 22° |
| 2026-05-06 14:16 | 54.39941 | -1.97683 | 37073 ft | 462 kts | 23° |
| 2026-05-06 14:17 | 54.45696 | -1.92909 | 37080 ft | 462 kts | 23° |
| 2026-05-06 14:17 | 54.51494 | -1.88094 | 37075 ft | 462 kts | 23° |
| 2026-05-06 14:18 | 54.57294 | -1.83267 | 37093 ft | 462 kts | 23° |
| 2026-05-06 14:18 | 54.63085 | -1.78455 | 37094 ft | 462 kts | 23° |
| 2026-05-06 14:19 | 54.68871 | -1.73610 | 37089 ft | 462 kts | 23° |
| 2026-05-06 14:19 | 54.74658 | -1.68747 | 37115 ft | 462 kts | 23° |
| 2026-05-06 14:20 | 54.80444 | -1.63876 | 37097 ft | 462 kts | 23° |
| 2026-05-06 14:20 | 54.86230 | -1.58990 | 37104 ft | 463 kts | 23° |
| 2026-05-06 14:21 | 54.92019 | -1.54091 | 37098 ft | 463 kts | 23° |
| 2026-05-06 14:21 | 54.97816 | -1.49156 | 37103 ft | 464 kts | 23° |
| 2026-05-06 14:22 | 55.03607 | -1.44209 | 37118 ft | 464 kts | 23° |
| 2026-05-06 14:22 | 55.09401 | -1.39241 | 37110 ft | 464 kts | 23° |
| 2026-05-06 14:23 | 55.15195 | -1.34265 | 37107 ft | 464 kts | 23° |
| 2026-05-06 14:23 | 55.20992 | -1.29265 | 37107 ft | 464 kts | 23° |
| 2026-05-06 14:24 | 55.26772 | -1.24279 | 37127 ft | 464 kts | 23° |
| 2026-05-06 14:24 | 55.32565 | -1.19257 | 37114 ft | 464 kts | 23° |
| 2026-05-06 14:25 | 55.38313 | -1.14246 | 37109 ft | 463 kts | 23° |
| 2026-05-06 14:25 | 55.44087 | -1.09204 | 37105 ft | 464 kts | 23° |
| 2026-05-06 14:26 | 55.49873 | -1.04143 | 37104 ft | 464 kts | 23° |
| 2026-05-06 14:26 | 55.55668 | -0.99053 | 37121 ft | 465 kts | 23° |
| 2026-05-06 14:27 | 55.61465 | -0.93933 | 37108 ft | 465 kts | 23° |
| 2026-05-06 14:27 | 55.67252 | -0.88800 | 37106 ft | 465 kts | 23° |
| 2026-05-06 14:28 | 55.73041 | -0.83666 | 37106 ft | 465 kts | 23° |
| 2026-05-06 14:28 | 55.78842 | -0.78517 | 37131 ft | 466 kts | 23° |
| 2026-05-06 14:29 | 55.84629 | -0.73346 | 37116 ft | 466 kts | 23° |
| 2026-05-06 14:29 | 55.90386 | -0.68188 | 37111 ft | 466 kts | 24° |
| 2026-05-06 14:30 | 55.96168 | -0.62978 | 37109 ft | 466 kts | 24° |
| 2026-05-06 14:30 | 56.01957 | -0.57742 | 37111 ft | 466 kts | 24° |
| 2026-05-06 14:31 | 56.07737 | -0.52512 | 37110 ft | 466 kts | 24° |
| 2026-05-06 14:31 | 56.13526 | -0.47261 | 37110 ft | 466 kts | 24° |
| 2026-05-06 14:32 | 56.19310 | -0.41987 | 37109 ft | 466 kts | 24° |
| 2026-05-06 14:32 | 56.25092 | -0.36705 | 37107 ft | 466 kts | 24° |
| 2026-05-06 14:33 | 56.30826 | -0.31442 | 37130 ft | 466 kts | 24° |
| 2026-05-06 14:33 | 56.36594 | -0.26121 | 37115 ft | 466 kts | 24° |
| 2026-05-06 14:34 | 56.42362 | -0.20785 | 37118 ft | 466 kts | 24° |
| 2026-05-06 14:34 | 56.48139 | -0.15432 | 37114 ft | 466 kts | 24° |
| 2026-05-06 14:35 | 56.52940 | -0.10969 | 37111 ft | 466 kts | 24° |
| 2026-05-06 14:35 | 56.58707 | -0.05588 | 37134 ft | 466 kts | 24° |
| 2026-05-06 14:36 | 56.64468 | -0.00196 | 37128 ft | 466 kts | 24° |
| 2026-05-06 14:36 | 56.70234 | 0.05234 | 37098 ft | 467 kts | 24° |
| 2026-05-06 14:37 | 56.76007 | 0.10687 | 37094 ft | 467 kts | 24° |
| 2026-05-06 14:37 | 56.81782 | 0.16144 | 37096 ft | 468 kts | 24° |
| 2026-05-06 14:38 | 56.87570 | 0.21636 | 37116 ft | 469 kts | 24° |
| 2026-05-06 14:38 | 56.93359 | 0.27149 | 37108 ft | 469 kts | 24° |
| 2026-05-06 14:39 | 56.99148 | 0.32688 | 37106 ft | 469 kts | 24° |
| 2026-05-06 14:39 | 57.04921 | 0.38239 | 37103 ft | 469 kts | 24° |
| 2026-05-06 14:40 | 57.10713 | 0.43817 | 37103 ft | 469 kts | 24° |
| 2026-05-06 14:40 | 57.16505 | 0.49398 | 37122 ft | 470 kts | 24° |
| 2026-05-06 14:41 | 57.22250 | 0.54983 | 37112 ft | 471 kts | 24° |
| 2026-05-06 14:41 | 57.28047 | 0.60633 | 37106 ft | 471 kts | 24° |
| 2026-05-06 14:42 | 57.33845 | 0.66302 | 37101 ft | 472 kts | 24° |
| 2026-05-06 14:42 | 57.39652 | 0.71999 | 37127 ft | 472 kts | 24° |
| 2026-05-06 14:43 | 57.45465 | 0.77703 | 37115 ft | 473 kts | 24° |
| 2026-05-06 14:43 | 57.51288 | 0.83455 | 37111 ft | 474 kts | 24° |
| 2026-05-06 14:44 | 57.57113 | 0.89233 | 37111 ft | 475 kts | 24° |
| 2026-05-06 14:45 | 57.65851 | 0.97953 | 37137 ft | 475 kts | 24° |
| 2026-05-06 14:45 | 57.71682 | 1.03774 | 37094 ft | 475 kts | 24° |
| 2026-05-06 14:46 | 57.77511 | 1.09627 | 37095 ft | 475 kts | 24° |
| 2026-05-06 14:46 | 57.83336 | 1.15482 | 37097 ft | 476 kts | 24° |
| 2026-05-06 14:47 | 57.89173 | 1.21371 | 37112 ft | 476 kts | 24° |
| 2026-05-06 14:47 | 57.94961 | 1.27252 | 37111 ft | 476 kts | 24° |
| 2026-05-06 14:48 | 58.00790 | 1.33211 | 37104 ft | 477 kts | 24° |
| 2026-05-06 14:48 | 58.06632 | 1.39187 | 37096 ft | 477 kts | 24° |
| 2026-05-06 14:49 | 58.12470 | 1.45176 | 37096 ft | 478 kts | 24° |
| 2026-05-06 14:49 | 58.18317 | 1.51198 | 37097 ft | 478 kts | 24° |
| 2026-05-06 14:50 | 58.24146 | 1.57230 | 37115 ft | 477 kts | 24° |
| 2026-05-06 14:50 | 58.29965 | 1.63288 | 37102 ft | 477 kts | 24° |
| 2026-05-06 14:51 | 58.35805 | 1.69374 | 37101 ft | 478 kts | 24° |
| 2026-05-06 14:51 | 58.41597 | 1.75417 | 37099 ft | 478 kts | 24° |
| 2026-05-06 14:52 | 58.47460 | 1.81579 | 37127 ft | 478 kts | 24° |
| 2026-05-06 14:52 | 58.53244 | 1.87687 | 37108 ft | 477 kts | 25° |
| 2026-05-06 14:52 | 58.56162 | 1.90774 | 36749 ft | 478 kts | 24° |
| 2026-05-06 14:53 | 58.59074 | 1.93864 | 36376 ft | 478 kts | 24° |
| 2026-05-06 14:53 | 58.61982 | 1.96950 | 36009 ft | 478 kts | 24° |
| 2026-05-06 14:53 | 58.64891 | 2.00037 | 35646 ft | 478 kts | 24° |
| 2026-05-06 14:53 | 58.67799 | 2.03133 | 35287 ft | 479 kts | 24° |
| 2026-05-06 14:54 | 58.70722 | 2.06249 | 34931 ft | 479 kts | 24° |
| 2026-05-06 14:54 | 58.73635 | 2.09361 | 34586 ft | 480 kts | 24° |
| 2026-05-06 14:54 | 58.76564 | 2.12496 | 34247 ft | 480 kts | 23° |
| 2026-05-06 14:54 | 58.79457 | 2.15698 | 33851 ft | 484 kts | 28° |
| 2026-05-06 14:55 | 58.82202 | 2.19483 | 33436 ft | 487 kts | 31° |
| 2026-05-06 14:55 | 58.84940 | 2.23359 | 33023 ft | 488 kts | 31° |
| 2026-05-06 14:55 | 58.87686 | 2.27250 | 32615 ft | 489 kts | 31° |
| 2026-05-06 14:55 | 58.90441 | 2.31140 | 32215 ft | 490 kts | 31° |
| 2026-05-06 14:56 | 58.93194 | 2.35026 | 31822 ft | 491 kts | 31° |
| 2026-05-06 14:56 | 58.95961 | 2.38939 | 31436 ft | 492 kts | 31° |
| 2026-05-06 14:56 | 58.98732 | 2.42871 | 31043 ft | 494 kts | 31° |
| 2026-05-06 14:56 | 59.01499 | 2.46806 | 30720 ft | 495 kts | 31° |
| 2026-05-06 14:57 | 59.04288 | 2.50780 | 30351 ft | 498 kts | 31° |
| 2026-05-06 14:57 | 59.07053 | 2.54726 | 29954 ft | 500 kts | 31° |
| 2026-05-06 14:57 | 59.09855 | 2.58737 | 29497 ft | 503 kts | 32° |
| 2026-05-06 14:57 | 59.12678 | 2.62792 | 29062 ft | 504 kts | 32° |
| 2026-05-06 14:58 | 59.15496 | 2.66843 | 28633 ft | 504 kts | 32° |
| 2026-05-06 14:58 | 59.18307 | 2.70896 | 28208 ft | 500 kts | 32° |
| 2026-05-06 14:58 | 59.21083 | 2.74917 | 27794 ft | 496 kts | 32° |
| 2026-05-06 14:58 | 59.23842 | 2.78924 | 27383 ft | 491 kts | 31° |